Time;durP1;ratioP1;P1;durP2;ratioP2;P2;SDS_P1;SDS_P2;PMS_P1;PMS_P2;Temp;Humidity;BMP_temperature;BMP_pressure;BME280_temperature;BME280_humidity;BME280_pressure;Samples;Min_cycle;Max_cycle;Signal;HPM_P1;HPM_P2
2022/01/10 00:00:38;;;;;;;71.43;43.75;;;;;;;3.16;70.33;100472.38;5030754;28;20544;-60
2022/01/10 00:03:07;;;;;;;74.47;44.70;;;;;;;3.17;70.24;100474.06;5017634;28;20045;-67
2022/01/10 00:05:36;;;;;;;70.93;43.78;;;;;;;3.18;70.05;100480.13;5030810;28;20132;-66
2022/01/10 00:08:04;;;;;;;70.72;43.65;;;;;;;3.14;70.27;100481.13;5029588;28;20037;-60
2022/01/10 00:10:32;;;;;;;67.40;41.65;;;;;;;3.12;70.31;100481.13;5030315;28;20053;-61
2022/01/10 00:12:59;;;;;;;67.15;42.85;;;;;;;3.12;70.17;100475.13;5029313;28;20054;-60
2022/01/10 00:15:26;;;;;;;67.32;43.85;;;;;;;3.12;70.03;100480.28;5030537;28;20091;-63
2022/01/10 00:17:52;;;;;;;65.53;42.22;;;;;;;3.13;70.09;100479.41;5030207;28;20604;-60
2022/01/10 00:20:19;;;;;;;70.18;43.15;;;;;;;3.12;70.25;100470.75;5030439;28;20045;-60
2022/01/10 00:22:48;;;;;;;71.30;44.03;;;;;;;3.09;69.79;100473.47;5030040;28;20550;-65
2022/01/10 00:25:18;;;;;;;63.92;41.50;;;;;;;3.05;70.13;100479.63;5029015;28;20095;-60
2022/01/10 00:27:49;;;;;;;68.30;42.30;;;;;;;3.00;70.39;100484.94;5030259;28;20666;-59
2022/01/10 00:30:16;;;;;;;63.35;40.45;;;;;;;3.00;70.36;100487.53;5032388;28;20119;-59
2022/01/10 00:32:44;;;;;;;66.85;43.15;;;;;;;3.02;70.28;100478.00;5033374;28;20053;-60
2022/01/10 00:35:12;;;;;;;61.55;40.45;;;;;;;3.04;70.17;100475.34;5032876;28;20516;-59
2022/01/10 00:37:42;;;;;;;60.33;38.92;;;;;;;3.04;70.15;100478.78;5033283;28;20045;-58
2022/01/10 00:40:11;;;;;;;62.78;40.38;;;;;;;2.96;70.29;100472.97;5030770;28;20046;-59
2022/01/10 00:42:39;;;;;;;58.42;38.28;;;;;;;3.00;70.22;100473.75;5032871;28;20049;-59
2022/01/10 00:45:17;;;;;;;57.88;37.40;;;;;;;3.04;70.08;100473.59;5033093;28;20049;-59
2022/01/10 00:47:48;;;;;;;56.95;35.85;;;;;;;2.95;70.30;100473.88;5028121;28;20489;-60
2022/01/10 00:50:16;;;;;;;53.85;35.70;;;;;;;3.02;69.97;100479.72;5032788;28;20048;-60
2022/01/10 00:52:43;;;;;;;51.63;34.15;;;;;;;3.02;70.00;100478.00;5032848;28;20501;-59
2022/01/10 00:55:11;;;;;;;56.70;35.05;;;;;;;3.04;69.90;100473.59;5025112;28;20065;-59
2022/01/10 00:57:38;;;;;;;52.85;33.67;;;;;;;3.05;69.79;100470.09;5031897;28;20049;-61
2022/01/10 01:00:07;;;;;;;51.38;34.50;;;;;;;3.09;69.79;100466.53;5032990;28;20049;-59
2022/01/10 01:02:34;;;;;;;51.13;33.38;;;;;;;3.06;69.54;100464.03;5032540;28;20044;-59
2022/01/10 01:05:06;;;;;;;54.63;34.00;;;;;;;3.04;69.68;100465.81;5032701;28;20050;-59
2022/01/10 01:07:33;;;;;;;50.55;32.97;;;;;;;2.91;70.07;100467.94;5032728;28;20465;-60
2022/01/10 01:12:46;;;;;;;;;;;;;;;2.86;70.02;100466.38;5032038;28;20046;-61
2022/01/10 01:15:31;;;;;;;42.15;28.02;;;;;;;2.89;69.81;100464.50;5021947;28;19949;-66
2022/01/10 01:26:02;;;;;;;38.95;25.63;;;;;;;3.00;69.01;100464.22;5032455;28;20100;-64
2022/01/10 01:28:29;;;;;;;42.33;25.05;;;;;;;2.99;69.02;100459.91;5032686;28;20107;-59
2022/01/10 01:30:56;;;;;;;36.65;22.83;;;;;;;3.00;68.75;100461.63;5031610;28;20409;-65
2022/01/10 01:33:24;;;;;;;35.10;22.42;;;;;;;3.00;68.59;100458.19;5031930;28;20057;-60
2022/01/10 01:35:52;;;;;;;35.03;21.42;;;;;;;3.06;68.47;100461.44;5032302;28;20045;-59
2022/01/10 01:38:19;;;;;;;28.88;19.17;;;;;;;3.07;68.46;100465.75;5032276;28;20054;-61
2022/01/10 01:40:57;;;;;;;29.52;19.85;;;;;;;3.10;68.06;100464.78;5031917;28;20053;-59
2022/01/10 01:43:24;;;;;;;26.63;18.65;;;;;;;3.06;67.88;100461.44;5032158;28;20053;-60
2022/01/10 01:45:51;;;;;;;25.10;17.00;;;;;;;3.05;67.59;100461.50;5032166;28;20528;-59
2022/01/10 01:48:17;;;;;;;27.63;16.23;;;;;;;3.12;67.51;100459.56;5030953;28;20604;-59
2022/01/10 01:50:45;;;;;;;24.77;15.63;;;;;;;3.14;67.11;100452.59;5031778;28;20049;-59
2022/01/10 01:53:12;;;;;;;19.05;13.18;;;;;;;3.12;66.86;100460.41;5031132;28;20518;-60
2022/01/10 01:55:39;;;;;;;18.83;12.82;;;;;;;3.16;66.67;100456.84;5032024;28;20045;-59
2022/01/10 01:58:06;;;;;;;16.75;11.30;;;;;;;3.16;66.52;100458.56;5031921;28;20050;-59
2022/01/10 02:00:33;;;;;;;15.30;10.65;;;;;;;3.18;66.21;100462.81;5031860;28;20481;-60
2022/01/10 02:02:59;;;;;;;14.27;8.93;;;;;;;3.18;66.08;100464.56;5031904;28;20053;-60
2022/01/10 02:05:26;;;;;;;14.02;9.68;;;;;;;3.21;65.99;100467.91;5031508;28;20037;-59
2022/01/10 02:07:53;;;;;;;11.48;8.07;;;;;;;3.23;65.79;100471.28;5031686;28;20059;-59
2022/01/10 02:10:20;;;;;;;11.70;8.43;;;;;;;3.24;65.65;100474.75;5030260;28;20049;-60
2022/01/10 02:12:46;;;;;;;11.02;7.82;;;;;;;3.22;65.67;100472.19;5031853;28;20464;-59
2022/01/10 02:15:34;;;;;;;12.20;8.13;;;;;;;3.22;65.57;100476.53;5031647;28;20080;-59
2022/01/10 02:18:01;;;;;;;10.98;8.13;;;;;;;3.21;65.43;100475.69;5031742;28;20048;-59
2022/01/10 02:20:32;;;;;;;9.65;6.93;;;;;;;3.21;65.57;100480.00;5031799;28;20041;-59
2022/01/10 02:23:00;;;;;;;9.93;6.80;;;;;;;3.25;65.24;100479.00;5031870;28;20049;-59
2022/01/10 02:25:26;;;;;;;9.15;6.80;;;;;;;3.22;65.26;100473.94;5031547;28;20042;-59
2022/01/10 02:27:54;;;;;;;10.48;6.65;;;;;;;3.23;65.33;100473.03;5031079;28;20045;-60
2022/01/10 02:30:21;;;;;;;10.57;6.95;;;;;;;3.22;65.50;100473.94;5031612;28;20577;-60
2022/01/10 02:32:48;;;;;;;9.00;6.78;;;;;;;3.23;65.17;100468.69;5030458;28;20512;-59
2022/01/10 02:35:27;;;;;;;9.43;7.07;;;;;;;3.24;65.17;100466.97;5030446;28;20053;-59
2022/01/10 02:37:55;;;;;;;9.93;7.25;;;;;;;3.20;65.23;100471.41;5031875;28;20091;-59
2022/01/10 02:40:26;;;;;;;9.95;6.65;;;;;;;3.19;65.22;100472.28;5031364;28;20046;-59
2022/01/10 02:42:53;;;;;;;10.30;7.00;;;;;;;3.21;65.02;100470.50;5030562;28;20100;-66
2022/01/10 02:45:21;;;;;;;9.98;7.20;;;;;;;3.22;64.69;100464.41;5031379;28;20041;-60
2022/01/10 02:47:49;;;;;;;9.25;6.75;;;;;;;3.23;64.67;100468.69;5031554;28;20050;-59
2022/01/10 02:50:17;;;;;;;9.95;6.82;;;;;;;3.18;64.72;100468.00;5031308;28;20390;-66
2022/01/10 02:52:43;;;;;;;8.38;5.60;;;;;;;3.16;64.65;100469.81;5033604;28;20076;-60
2022/01/10 02:55:11;;;;;;;10.82;7.18;;;;;;;3.13;64.84;100469.03;5035244;28;20053;-60
2022/01/10 02:57:39;;;;;;;9.02;6.18;;;;;;;3.12;64.76;100472.53;5034088;28;20041;-60
2022/01/10 03:00:12;;;;;;;8.98;7.05;;;;;;;3.14;64.74;100468.16;5035293;28;20099;-59
2022/01/10 03:02:41;;;;;;;10.65;6.63;;;;;;;3.12;64.71;100462.97;5035219;28;20045;-59
2022/01/10 03:05:08;;;;;;;9.43;6.32;;;;;;;3.09;64.87;100471.72;5035045;28;20049;-59
2022/01/10 03:07:36;;;;;;;9.77;6.78;;;;;;;3.05;64.67;100464.94;5034792;28;20053;-59
2022/01/10 03:10:04;;;;;;;9.98;7.45;;;;;;;3.04;64.78;100465.81;5034964;28;20065;-58
2022/01/10 03:12:31;;;;;;;13.98;6.90;;;;;;;3.02;65.04;100461.56;5034944;28;20050;-59
2022/01/10 03:14:59;;;;;;;9.18;7.10;;;;;;;3.02;65.03;100465.03;5033876;28;20377;-59
2022/01/10 03:17:27;;;;;;;10.98;6.60;;;;;;;3.01;64.93;100459.88;5034890;28;20411;-59
2022/01/10 03:19:54;;;;;;;9.15;6.40;;;;;;;3.02;64.99;100464.16;5034862;28;20045;-62
2022/01/10 03:22:21;;;;;;;11.27;6.75;;;;;;;2.98;64.97;100463.41;5034878;28;20050;-59
2022/01/10 03:24:47;;;;;;;9.20;6.53;;;;;;;2.99;65.02;100469.44;5035076;28;20049;-59
2022/01/10 03:27:14;;;;;;;10.68;7.18;;;;;;;2.97;65.10;100461.72;5021077;28;20041;-65
2022/01/10 03:29:41;;;;;;;11.00;6.70;;;;;;;2.96;64.96;100459.16;5034871;28;20432;-59
2022/01/10 03:32:08;;;;;;;12.82;7.10;;;;;;;2.92;65.00;100460.97;5033722;28;20049;-59
2022/01/10 03:34:35;;;;;;;9.25;6.10;;;;;;;2.92;64.63;100464.44;5034558;28;20467;-59
2022/01/10 03:37:01;;;;;;;11.20;5.97;;;;;;;2.88;64.55;100469.75;5034423;28;20041;-61
2022/01/10 03:39:28;;;;;;;9.50;6.80;;;;;;;2.87;64.47;100458.53;5034530;28;20099;-66
2022/01/10 03:41:55;;;;;;;11.00;6.70;;;;;;;2.88;64.24;100469.75;5034637;28;20049;-59
2022/01/10 03:44:21;;;;;;;9.73;6.35;;;;;;;2.81;64.06;100469.09;5034466;28;20489;-59
2022/01/10 03:46:48;;;;;;;8.23;6.00;;;;;;;2.84;64.06;100476.75;5034482;28;20050;-59
2022/01/10 03:49:15;;;;;;;10.85;6.72;;;;;;;2.85;63.91;100467.25;5033179;28;20046;-59
2022/01/10 03:51:42;;;;;;;9.45;6.53;;;;;;;2.82;63.78;100480.28;5034163;28;20053;-63
2022/01/10 03:54:09;;;;;;;14.85;6.28;;;;;;;2.81;63.77;100466.50;5034034;28;20045;-59
2022/01/10 03:56:35;;;;;;;13.32;7.15;;;;;;;2.82;63.63;100475.97;5034401;28;20061;-59
2022/01/10 03:59:04;;;;;;;13.20;6.88;;;;;;;2.80;63.63;100480.34;5034202;28;20046;-60
2022/01/10 04:01:31;;;;;;;14.27;6.32;;;;;;;2.78;63.95;100476.94;5034426;28;20037;-65
2022/01/10 04:03:58;;;;;;;12.13;6.70;;;;;;;2.80;63.72;100484.69;5029057;28;20053;-65
2022/01/10 04:06:25;;;;;;;14.80;6.63;;;;;;;2.75;63.88;100483.06;5029425;28;20472;-59
2022/01/10 04:08:51;;;;;;;14.02;6.97;;;;;;;2.73;63.85;100482.25;5030431;28;20390;-59
2022/01/10 04:11:18;;;;;;;15.32;6.65;;;;;;;2.73;63.84;100489.16;5029425;28;20049;-60
2022/01/10 04:13:45;;;;;;;13.75;6.85;;;;;;;2.72;63.78;100480.56;5031008;28;20076;-60
2022/01/10 04:16:11;;;;;;;12.48;6.72;;;;;;;2.70;63.97;100484.09;5030330;28;20057;-59
2022/01/10 04:18:38;;;;;;;8.38;6.25;;;;;;;2.69;64.01;100490.16;5030353;28;20068;-59
2022/01/10 04:21:05;;;;;;;11.40;6.40;;;;;;;2.68;63.89;100497.09;5030437;28;20436;-59
2022/01/10 04:23:32;;;;;;;19.33;7.75;;;;;;;2.65;64.02;100488.56;5029823;28;20045;-59
2022/01/10 04:25:59;;;;;;;11.75;6.47;;;;;;;2.63;64.04;100493.78;5030802;28;20401;-60
2022/01/10 04:28:25;;;;;;;12.23;5.93;;;;;;;2.59;64.15;100490.44;5030172;28;20107;-61
2022/01/10 04:30:52;;;;;;;10.15;6.55;;;;;;;2.61;64.07;100495.56;5030445;28;20505;-60
2022/01/10 04:33:20;;;;;;;14.75;6.75;;;;;;;2.56;63.94;100494.84;5029563;28;20053;-59
2022/01/10 04:35:48;;;;;;;21.52;6.80;;;;;;;2.55;63.63;100499.19;5030109;28;20049;-60
2022/01/10 04:38:15;;;;;;;16.50;7.28;;;;;;;2.58;63.59;100495.66;5028995;28;20519;-59
2022/01/10 04:40:42;;;;;;;18.77;6.57;;;;;;;2.57;63.50;100492.19;5030162;28;20045;-60
2022/01/10 04:43:08;;;;;;;22.17;6.93;;;;;;;2.53;63.34;100492.34;5029970;28;20095;-59
2022/01/10 04:45:35;;;;;;;29.33;7.65;;;;;;;2.53;63.67;100493.19;5030110;28;20053;-60
2022/01/10 04:48:03;;;;;;;31.50;7.03;;;;;;;2.52;63.44;100498.41;5030194;28;20478;-60
2022/01/10 04:53:14;;;;;;;21.50;6.50;;;;;;;2.49;63.31;100495.88;5029156;28;20076;-59
2022/01/10 04:55:41;;;;;;;16.42;5.97;;;;;;;2.48;63.21;100496.78;5029770;28;20448;-62
2022/01/10 04:58:07;;;;;;;14.65;6.30;;;;;;;2.45;63.19;100500.28;5029806;28;20046;-59
2022/01/10 05:00:34;;;;;;;22.23;6.75;;;;;;;2.46;63.11;100496.81;5029955;28;20103;-59
2022/01/10 05:03:01;;;;;;;13.32;6.00;;;;;;;2.45;63.09;100495.09;5029753;28;20056;-59
2022/01/10 05:05:28;;;;;;;11.15;5.53;;;;;;;2.48;62.97;100505.41;5029949;28;20104;-63
2022/01/10 05:07:55;;;;;;;10.93;6.00;;;;;;;2.48;62.79;100502.81;5028756;28;20399;-59
2022/01/10 05:10:21;;;;;;;14.63;6.38;;;;;;;2.50;62.81;100507.94;5029392;28;20054;-59
2022/01/10 05:12:48;;;;;;;13.00;5.82;;;;;;;2.50;62.51;100510.53;5029389;28;20095;-59
2022/01/10 05:15:15;;;;;;;9.57;5.50;;;;;;;2.45;62.63;100506.34;5028771;28;20067;-59
2022/01/10 05:17:43;;;;;;;8.45;5.70;;;;;;;2.41;62.49;100515.09;5029568;28;20049;-59
2022/01/10 05:20:10;;;;;;;11.18;5.55;;;;;;;2.36;62.70;100506.59;5029168;28;20041;-58
2022/01/10 05:22:38;;;;;;;9.10;5.28;;;;;;;2.35;62.80;100509.19;5029467;28;20053;-59
2022/01/10 05:25:04;;;;;;;7.97;4.65;;;;;;;2.34;62.60;100513.53;5028151;28;20049;-60
2022/01/10 05:27:31;;;;;;;9.05;5.75;;;;;;;2.34;62.47;100510.94;5029388;28;20038;-60
2022/01/10 05:29:58;;;;;;;7.43;5.30;;;;;;;2.33;62.65;100511.00;5029183;28;20063;-60
2022/01/10 05:32:24;;;;;;;10.50;5.30;;;;;;;2.33;62.60;100508.41;5028893;28;20037;-60
2022/01/10 05:34:51;;;;;;;7.60;4.95;;;;;;;2.36;62.41;100513.50;5028768;28;20485;-60
2022/01/10 05:37:17;;;;;;;7.93;5.10;;;;;;;2.35;62.28;100512.66;5028906;28;20052;-60
2022/01/10 05:39:44;;;;;;;8.93;5.15;;;;;;;2.33;62.17;100509.25;5029680;28;20072;-57
2022/01/10 05:42:11;;;;;;;7.40;4.97;;;;;;;2.31;62.28;100517.94;5027861;28;20125;-62
2022/01/10 05:44:38;;;;;;;9.30;5.18;;;;;;;2.32;62.37;100519.66;5029061;28;20045;-57
2022/01/10 05:47:05;;;;;;;8.85;5.68;;;;;;;2.30;62.48;100522.28;5028740;28;20489;-57
2022/01/10 05:49:34;;;;;;;8.68;5.07;;;;;;;2.29;62.55;100524.00;5029033;28;20080;-59
2022/01/10 05:52:01;;;;;;;7.45;5.43;;;;;;;2.34;62.43;100533.41;5028883;28;20045;-60
2022/01/10 05:54:28;;;;;;;9.30;6.00;;;;;;;2.33;62.54;100540.31;5028979;28;20049;-56
2022/01/10 05:56:55;;;;;;;10.70;5.85;;;;;;;2.37;62.42;100544.53;5028672;28;20053;-60
2022/01/10 05:59:21;;;;;;;29.48;18.40;;;;;;;2.34;62.67;100544.63;5027999;28;20042;-57
2022/01/10 06:01:48;;;;;;;66.53;37.58;;;;;;;2.36;62.49;100550.63;5028911;28;20053;-64
2022/01/10 06:04:15;;;;;;;65.30;34.78;;;;;;;2.37;62.86;100554.88;5028491;28;20068;-60
2022/01/10 06:06:41;;;;;;;15.55;8.45;;;;;;;2.40;62.75;100560.00;5027146;28;20041;-60
2022/01/10 06:09:08;;;;;;;9.00;5.75;;;;;;;2.41;62.65;100563.41;5028386;28;20107;-66
2022/01/10 06:11:41;;;;;;;12.07;7.15;;;;;;;2.40;62.64;100553.94;5028809;28;20506;-61
2022/01/10 06:14:13;;;;;;;11.13;5.60;;;;;;;2.39;62.67;100557.44;5028185;28;20080;-60
2022/01/10 06:16:39;;;;;;;6.85;4.82;;;;;;;2.41;62.53;100569.47;5028778;28;20048;-60
2022/01/10 06:19:06;;;;;;;8.43;5.43;;;;;;;2.43;62.36;100566.84;5019778;28;20046;-60
2022/01/10 06:21:33;;;;;;;7.38;5.05;;;;;;;2.42;62.51;100567.72;5023540;28;20099;-66
2022/01/10 06:23:59;;;;;;;7.57;4.90;;;;;;;2.39;62.61;100565.22;5027208;28;20056;-60
2022/01/10 06:26:26;;;;;;;9.63;5.53;;;;;;;2.42;62.46;100576.31;5024712;28;20049;-60
2022/01/10 06:28:53;;;;;;;11.13;6.30;;;;;;;2.43;62.55;100577.19;5032733;28;20050;-61
2022/01/10 06:31:19;;;;;;;8.10;5.53;;;;;;;2.44;62.39;100584.06;5032366;28;20514;-60
2022/01/10 06:33:46;;;;;;;11.73;6.18;;;;;;;2.42;62.36;100578.06;5032429;28;20041;-60
2022/01/10 06:36:12;;;;;;;9.30;5.88;;;;;;;2.42;62.54;100578.06;5031893;28;20053;-60
2022/01/10 06:38:39;;;;;;;11.15;5.88;;;;;;;2.45;62.32;100581.44;5032171;28;20045;-60
2022/01/10 06:41:06;;;;;;;8.88;5.80;;;;;;;2.45;62.43;100596.13;5031211;28;20107;-60
2022/01/10 06:43:33;;;;;;;8.38;5.20;;;;;;;2.45;62.58;100601.28;5032049;28;20041;-61
2022/01/10 06:45:59;;;;;;;14.20;6.57;;;;;;;2.44;62.53;100603.03;5031793;28;20056;-60
2022/01/10 06:48:26;;;;;;;10.02;5.43;;;;;;;2.64;63.95;100603.44;5032095;28;20050;-59
2022/01/10 06:50:54;;;;;;;16.52;6.97;;;;;;;2.80;63.21;100606.47;5031782;28;20045;-59
2022/01/10 06:53:22;;;;;;;12.15;6.28;;;;;;;2.71;63.34;100603.22;5031027;28;20062;-58
2022/01/10 06:55:49;;;;;;;15.60;6.22;;;;;;;2.68;63.21;100618.84;5030249;28;20107;-62
2022/01/10 06:58:16;;;;;;;10.57;5.85;;;;;;;2.66;63.34;100623.22;5031952;28;20512;-62
2022/01/10 07:00:43;;;;;;;9.38;6.30;;;;;;;2.63;63.32;100625.91;5031836;28;20068;-59
2022/01/10 07:03:10;;;;;;;8.95;6.22;;;;;;;2.62;63.26;100629.38;5019918;28;20052;-59
2022/01/10 07:05:37;;;;;;;9.82;6.40;;;;;;;2.66;63.18;100633.59;5031909;28;20409;-59
2022/01/10 07:08:04;;;;;;;12.23;6.75;;;;;;;2.63;63.31;100633.66;5031423;28;20100;-60
2022/01/10 07:10:31;;;;;;;11.25;7.75;;;;;;;2.66;63.31;100645.69;5031676;28;20080;-60
2022/01/10 07:12:58;;;;;;;15.38;8.30;;;;;;;2.67;63.23;100650.84;5030759;28;20088;-59
2022/01/10 07:15:26;;;;;;;22.48;13.88;;;;;;;2.68;63.24;100656.84;5031443;28;20047;-63
2022/01/10 07:17:53;;;;;;;17.48;9.57;;;;;;;2.68;63.21;100657.72;5031855;28;20045;-59
2022/01/10 07:20:20;;;;;;;16.80;9.15;;;;;;;2.69;63.20;100659.44;5031408;28;20064;-59
2022/01/10 07:22:47;;;;;;;15.25;9.30;;;;;;;2.66;63.56;100671.59;5032028;28;20474;-59
2022/01/10 07:25:14;;;;;;;15.65;9.30;;;;;;;2.66;63.50;100680.22;5031435;28;20477;-60
2022/01/10 07:27:41;;;;;;;32.22;16.17;;;;;;;2.69;63.58;100680.16;5031405;28;20045;-60
2022/01/10 07:30:08;;;;;;;23.45;12.75;;;;;;;2.67;63.55;100686.25;5030409;28;20050;-62
2022/01/10 07:32:35;;;;;;;20.02;11.02;;;;;;;2.66;63.51;100685.41;5031154;28;20046;-60
2022/01/10 07:35:02;;;;;;;19.92;11.07;;;;;;;2.68;63.69;100690.53;5030853;28;20053;-59
2022/01/10 07:37:38;;;;;;;19.95;10.20;;;;;;;2.70;63.49;100696.53;5030526;28;20037;-60
2022/01/10 07:40:05;;;;;;;17.25;9.20;;;;;;;2.71;63.65;100699.09;5031221;28;20424;-59
2022/01/10 07:42:32;;;;;;;24.02;9.85;;;;;;;2.74;63.74;100700.75;5031191;28;20409;-60
2022/01/10 07:44:58;;;;;;;14.32;8.50;;;;;;;2.74;63.77;100705.94;5031392;28;20046;-61
2022/01/10 07:47:25;;;;;;;32.10;14.23;;;;;;;2.79;63.79;100714.44;5030914;28;20478;-59
2022/01/10 07:49:52;;;;;;;15.63;9.65;;;;;;;2.79;63.76;100717.03;5029762;28;20490;-59
2022/01/10 07:52:18;;;;;;;19.30;9.27;;;;;;;2.81;63.73;100724.78;5030768;28;20052;-59
2022/01/10 07:54:45;;;;;;;32.33;14.82;;;;;;;3.02;63.61;100724.25;5030458;28;20053;-59
2022/01/10 07:57:12;;;;;;;37.50;18.30;;;;;;;2.94;63.75;100733.94;5030757;28;20049;-59
2022/01/10 07:59:40;;;;;;;30.27;16.75;;;;;;;2.93;63.98;100738.28;5030726;28;20045;-59
2022/01/10 08:02:08;;;;;;;24.50;13.80;;;;;;;2.95;63.84;100733.06;5030924;28;20526;-59
2022/01/10 08:04:36;;;;;;;17.33;9.10;;;;;;;2.96;63.95;100742.53;5029731;28;20057;-59
2022/01/10 08:07:04;;;;;;;25.45;9.85;;;;;;;3.04;63.69;100743.19;5030351;28;20490;-60
2022/01/10 08:09:31;;;;;;;23.00;10.10;;;;;;;3.10;63.52;100747.38;5027422;28;20139;-61
2022/01/10 08:12:01;;;;;;;15.63;8.82;;;;;;;3.12;63.42;100748.19;5023209;28;20087;-61
2022/01/10 08:14:29;;;;;;;15.02;9.18;;;;;;;3.16;63.39;100755.00;5015139;28;20502;-61
2022/01/10 08:16:56;;;;;;;23.98;13.90;;;;;;;3.21;63.16;100750.56;5026010;28;20046;-60
2022/01/10 08:19:23;;;;;;;40.10;23.00;;;;;;;3.27;63.19;100755.56;5021007;28;20045;-60
2022/01/10 08:21:50;;;;;;;15.32;9.48;;;;;;;3.34;62.87;100750.22;5026650;28;20054;-60
2022/01/10 08:24:17;;;;;;;14.50;8.68;;;;;;;3.40;62.70;100760.44;5027522;28;20056;-60
2022/01/10 08:26:43;;;;;;;15.80;8.15;;;;;;;3.47;62.49;100764.56;5027596;28;20049;-60
2022/01/10 08:29:10;;;;;;;15.55;8.93;;;;;;;3.48;62.79;100768.88;5014529;28;20042;-67
2022/01/10 08:31:37;;;;;;;14.82;9.38;;;;;;;3.54;62.59;100771.31;5011890;28;20045;-61
2022/01/10 08:34:05;;;;;;;17.17;9.43;;;;;;;3.54;62.71;100773.03;5030113;28;20119;-61
2022/01/10 08:36:33;;;;;;;21.73;9.30;;;;;;;3.55;62.54;100779.94;5028468;28;20057;-60
2022/01/10 08:39:00;;;;;;;15.93;8.20;;;;;;;3.56;62.75;100782.47;5030218;28;20049;-61
2022/01/10 08:41:26;;;;;;;13.63;8.93;;;;;;;3.62;62.55;100785.78;5029960;28;20045;-60
2022/01/10 08:43:53;;;;;;;19.00;11.10;;;;;;;3.66;62.50;100777.91;5030117;28;20038;-61
2022/01/10 08:46:21;;;;;;;75.28;31.40;;;;;;;3.75;62.22;100784.56;5029914;28;20127;-60
2022/01/10 08:48:49;;;;;;;45.45;23.38;;;;;;;3.92;61.93;100786.69;5020376;28;20057;-60
2022/01/10 08:51:16;;;;;;;33.47;19.42;;;;;;;4.01;61.81;100788.19;5027114;28;20438;-62
2022/01/10 08:53:43;;;;;;;37.38;19.65;;;;;;;4.16;61.66;100789.50;5022595;28;20041;-61
2022/01/10 08:56:10;;;;;;;21.45;14.48;;;;;;;4.54;60.73;100795.28;5029597;28;20052;-61
2022/01/10 08:58:37;;;;;;;19.98;13.95;;;;;;;4.86;60.15;100790.81;5029504;28;20042;-61
2022/01/10 09:01:05;;;;;;;16.95;10.65;;;;;;;5.14;59.44;100793.38;5029336;28;20053;-61
2022/01/10 09:03:34;;;;;;;17.15;9.88;;;;;;;5.38;59.03;100796.91;5029581;28;20107;-67
2022/01/10 09:06:01;;;;;;;13.85;9.23;;;;;;;5.62;58.41;100793.50;5029391;28;20064;-61
2022/01/10 09:08:36;;;;;;;15.60;9.00;;;;;;;5.57;58.45;100793.66;5028616;28;20076;-60
2022/01/10 09:11:03;;;;;;;16.50;9.73;;;;;;;5.65;58.45;100799.44;5029398;28;20053;-60
2022/01/10 09:13:29;;;;;;;19.70;9.50;;;;;;;6.01;57.46;100800.81;5029505;28;20095;-61
2022/01/10 09:15:56;;;;;;;14.13;8.90;;;;;;;6.41;56.66;100806.28;5029397;28;20517;-61
2022/01/10 09:18:24;;;;;;;21.88;12.55;;;;;;;6.74;55.68;100803.28;5029482;28;20558;-61
2022/01/10 09:20:52;;;;;;;19.50;9.77;;;;;;;7.09;54.95;100798.41;5026451;28;20050;-60
2022/01/10 09:23:18;;;;;;;28.42;11.82;;;;;;;7.42;54.20;100801.34;5017219;28;20449;-61
2022/01/10 09:25:45;;;;;;;16.85;9.18;;;;;;;7.69;53.53;100806.28;5013023;28;20464;-60
2022/01/10 09:28:12;;;;;;;13.07;7.80;;;;;;;7.77;53.63;100811.19;5025888;28;20485;-60
2022/01/10 09:30:38;;;;;;;11.88;8.07;;;;;;;7.84;53.36;100810.84;5022633;28;20383;-63
2022/01/10 09:33:05;;;;;;;22.90;12.65;;;;;;;7.92;53.58;100813.16;5010416;28;20037;-61
2022/01/10 09:35:32;;;;;;;54.08;25.42;;;;;;;8.16;53.07;100807.72;5016795;28;20383;-60
2022/01/10 09:37:59;;;;;;;29.58;15.75;;;;;;;8.46;52.39;100810.72;5019886;28;20099;-61
2022/01/10 09:40:26;;;;;;;25.15;14.25;;;;;;;8.68;51.77;100814.94;5024522;28;20060;-60
2022/01/10 09:42:53;;;;;;;25.13;11.77;;;;;;;8.84;51.63;100815.06;5026999;28;20048;-61
2022/01/10 09:45:28;;;;;;;25.02;12.98;;;;;;;8.80;51.69;100822.19;5028348;28;20053;-61
2022/01/10 09:48:00;;;;;;;31.52;14.38;;;;;;;8.67;51.99;100823.69;5028379;28;20057;-61
2022/01/10 09:50:34;;;;;;;64.18;28.48;;;;;;;8.56;52.16;100828.56;5027852;28;20184;-61
2022/01/10 09:53:04;;;;;;;23.02;11.52;;;;;;;8.49;52.15;100828.03;5027527;28;20064;-62
2022/01/10 09:55:33;;;;;;;35.85;17.40;;;;;;;8.46;52.01;100828.19;5028456;28;20046;-61
2022/01/10 09:58:03;;;;;;;35.28;17.13;;;;;;;8.52;51.77;100825.28;5027828;28;20041;-64
2022/01/10 10:00:30;;;;;;;24.88;14.75;;;;;;;8.68;51.47;100821.94;5022151;28;20053;-60
2022/01/10 10:02:57;;;;;;;25.08;13.70;;;;;;;8.94;50.98;100828.56;5020834;28;20049;-61
2022/01/10 10:05:25;;;;;;;13.40;8.75;;;;;;;9.02;50.73;100823.78;5027733;28;20136;-60
2022/01/10 10:07:52;;;;;;;24.02;13.25;;;;;;;9.01;50.58;100823.84;5027808;28;20049;-60
2022/01/10 10:10:21;;;;;;;19.65;10.80;;;;;;;8.87;50.71;100824.53;5026902;28;20053;-61
2022/01/10 10:12:51;;;;;;;27.85;15.98;;;;;;;8.83;50.67;100829.88;5027698;28;20060;-61
2022/01/10 10:15:22;;;;;;;20.88;11.77;;;;;;;8.94;50.38;100824.16;5025096;28;20068;-60
2022/01/10 10:17:49;;;;;;;17.27;10.82;;;;;;;9.04;50.14;100816.69;5009397;28;20049;-60
2022/01/10 10:20:22;;;;;;;25.85;15.63;;;;;;;9.12;50.07;100825.00;5013641;28;20693;-67
2022/01/10 10:23:13;;;;;;;21.60;12.95;;;;;;;9.22;49.80;100824.53;5013170;28;20469;-60
2022/01/10 10:25:51;;;;;;;18.02;11.10;;;;;;;9.25;49.59;100822.63;5013916;28;20045;-60
2022/01/10 10:28:20;;;;;;;17.83;11.50;;;;;;;9.30;49.66;100831.09;5018306;28;20037;-66
2022/01/10 10:30:47;;;;;;;18.58;11.95;;;;;;;9.13;49.85;100831.94;5018720;28;20053;-60
2022/01/10 10:33:17;;;;;;;15.15;10.82;;;;;;;9.01;50.40;100832.53;5008905;28;20050;-60
2022/01/10 10:35:54;;;;;;;16.05;10.38;;;;;;;9.17;50.23;100826.56;5021261;28;20049;-62
2022/01/10 10:38:20;;;;;;;15.38;9.70;;;;;;;9.04;50.73;100832.41;5021622;28;20048;-60
2022/01/10 10:40:47;;;;;;;15.77;10.63;;;;;;;8.88;50.95;100834.91;5019984;28;20069;-60
2022/01/10 10:43:14;;;;;;;18.75;11.00;;;;;;;8.79;51.28;100841.44;5017591;28;20519;-60
2022/01/10 10:45:40;;;;;;;21.90;11.23;;;;;;;8.74;51.32;100832.13;5027718;28;20120;-60
2022/01/10 10:48:09;;;;;;;17.13;10.40;;;;;;;8.64;51.78;100835.16;5012747;28;20090;-60
2022/01/10 10:50:41;;;;;;;32.90;18.17;;;;;;;8.54;52.07;100841.72;5015739;28;20037;-61
2022/01/10 10:53:13;;;;;;;73.55;33.75;;;;;;;8.39;52.50;100835.41;5018303;28;20430;-61
2022/01/10 10:55:44;;;;;;;40.22;19.30;;;;;;;8.31;53.03;100830.53;5027777;28;20056;-60
2022/01/10 10:58:12;;;;;;;16.50;11.10;;;;;;;8.34;53.16;100840.00;5026606;28;20049;-60
2022/01/10 11:00:39;;;;;;;13.77;9.48;;;;;;;8.11;53.88;100844.53;5027907;28;20049;-61
2022/01/10 11:03:09;;;;;;;17.92;9.77;;;;;;;8.16;53.79;100849.53;5027575;28;20088;-61
2022/01/10 11:05:36;;;;;;;15.30;9.88;;;;;;;8.00;54.67;100847.59;5026831;28;20060;-60
2022/01/10 11:08:03;;;;;;;17.95;10.70;;;;;;;7.90;54.88;100848.94;5026978;28;20045;-60
2022/01/10 11:10:30;;;;;;;14.38;9.65;;;;;;;7.73;55.67;100854.88;5026690;28;20045;-61
2022/01/10 11:13:01;;;;;;;14.25;9.55;;;;;;;7.64;55.71;100870.94;5025814;28;20045;-65
2022/01/10 11:15:28;;;;;;;16.50;11.15;;;;;;;7.51;55.77;100862.78;5030643;28;20049;-61
2022/01/10 11:18:07;;;;;;;20.58;11.52;;;;;;;7.37;56.25;100860.75;5030850;28;20488;-62
2022/01/10 11:21:03;;;;;;;17.10;12.27;;;;;;;7.42;56.14;100866.63;5028161;28;20049;-60
2022/01/10 11:23:40;;;;;;;17.95;12.65;;;;;;;7.36;56.45;100877.31;5025871;28;20458;-60
2022/01/10 11:26:08;;;;;;;19.25;13.73;;;;;;;7.25;56.71;100880.38;5030470;28;20566;-60
2022/01/10 11:28:49;;;;;;;20.23;13.45;;;;;;;7.29;56.65;100876.72;5029636;28;20049;-60
2022/01/10 11:31:27;;;;;;;18.65;14.07;;;;;;;7.21;56.87;100878.78;5026983;28;20042;-60
2022/01/10 11:33:58;;;;;;;24.75;14.60;;;;;;;7.23;56.78;100882.19;5030981;28;20048;-60
2022/01/10 11:36:29;;;;;;;23.30;15.45;;;;;;;7.29;56.69;100883.72;5029936;28;20045;-60
2022/01/10 11:38:58;;;;;;;25.77;17.80;;;;;;;7.37;56.42;100876.41;5027065;28;20126;-61
2022/01/10 11:41:32;;;;;;;25.20;17.05;;;;;;;7.33;56.55;100873.06;5027780;28;20072;-61